createdAt,value
2019-04-06T00:00:29.365Z,6.60
2019-04-06T00:02:57.834Z,6.70
2019-04-06T00:05:26.381Z,6.70
2019-04-06T00:07:54.883Z,6.70
2019-04-06T00:10:23.492Z,6.80
2019-04-06T00:12:51.989Z,6.80
2019-04-06T00:15:20.524Z,6.80
2019-04-06T00:17:49.019Z,6.70
2019-04-06T00:20:17.489Z,6.70
2019-04-06T00:22:45.983Z,6.70
2019-04-06T00:25:14.476Z,6.70
2019-04-06T00:27:43.069Z,6.70
2019-04-06T00:30:12.193Z,6.60
2019-04-06T00:32:45.435Z,6.70
2019-04-06T00:35:13.957Z,6.70
2019-04-06T00:37:42.538Z,6.70
2019-04-06T00:40:11.249Z,6.60
2019-04-06T00:42:39.826Z,6.60
2019-04-06T00:45:08.509Z,6.60
2019-04-06T00:47:37.079Z,6.60
2019-04-06T00:50:06.896Z,6.50
2019-04-06T00:52:35.464Z,6.60
2019-04-06T00:55:05.289Z,6.60
2019-04-06T00:57:33.932Z,6.50
2019-04-06T01:00:08.468Z,6.50
2019-04-06T01:02:42.252Z,6.40
2019-04-06T01:05:11.294Z,6.40
2019-04-06T01:07:46.057Z,6.20
2019-04-06T01:13:10.154Z,6.10
2019-04-06T01:15:38.842Z,6.00
2019-04-06T01:18:07.502Z,5.90
2019-04-06T01:20:36.094Z,5.80
2019-04-06T01:23:04.922Z,5.80
2019-04-06T01:25:34.175Z,5.70
2019-04-06T01:28:02.778Z,5.70
2019-04-06T01:30:31.341Z,5.60
2019-04-06T01:33:01.629Z,5.50
2019-04-06T01:35:30.265Z,5.50
2019-04-06T01:37:58.830Z,5.40
2019-04-06T01:40:27.384Z,5.30
2019-04-06T01:42:55.958Z,5.30
2019-04-06T01:45:24.513Z,5.20
2019-04-06T01:47:53.448Z,5.20
2019-04-06T01:50:21.928Z,5.10
2019-04-06T01:52:50.487Z,5.20
2019-04-06T01:55:19.052Z,5.20
2019-04-06T01:57:47.628Z,5.20
2019-04-06T02:00:16.736Z,5.20
2019-04-06T02:02:49.832Z,5.20
2019-04-06T02:05:18.351Z,5.20
2019-04-06T02:07:47.009Z,5.30
2019-04-06T02:10:15.893Z,5.40
2019-04-06T02:12:44.376Z,5.40
2019-04-06T02:15:13.184Z,5.40
2019-04-06T02:17:41.661Z,5.50
2019-04-06T02:20:10.587Z,5.50
2019-04-06T02:22:39.125Z,5.50
2019-04-06T02:25:07.882Z,5.50
2019-04-06T02:27:36.430Z,5.60
2019-04-06T02:30:25.285Z,5.60
2019-04-06T02:32:55.403Z,5.60
2019-04-06T02:35:25.615Z,5.60
2019-04-06T02:37:55.795Z,5.60
2019-04-06T02:40:26.018Z,5.50
2019-04-06T02:42:56.211Z,5.50
2019-04-06T02:45:28.534Z,5.50
2019-04-06T02:47:59.952Z,5.60
2019-04-06T02:50:29.509Z,5.60
2019-04-06T02:52:58.174Z,5.60
2019-04-06T02:55:26.926Z,5.60
2019-04-06T02:57:55.529Z,5.60
2019-04-06T03:00:24.124Z,5.60
2019-04-06T03:02:52.697Z,5.50
2019-04-06T03:05:21.274Z,5.50
2019-04-06T03:07:49.835Z,5.60
2019-04-06T03:10:18.410Z,5.60
2019-04-06T03:12:47.168Z,5.60
2019-04-06T03:15:15.783Z,5.60
2019-04-06T03:17:44.292Z,5.50
2019-04-06T03:20:13.140Z,5.50
2019-04-06T03:22:41.666Z,5.50
2019-04-06T03:25:10.480Z,5.50
2019-04-06T03:27:39.036Z,5.50
2019-04-06T03:30:10.763Z,5.40
2019-04-06T03:32:39.500Z,5.40
2019-04-06T03:35:08.277Z,5.40
2019-04-06T03:37:36.910Z,5.40
2019-04-06T03:40:06.136Z,5.40
2019-04-06T03:42:34.775Z,5.50
2019-04-06T03:45:03.319Z,5.50
2019-04-06T03:47:31.974Z,5.50
2019-04-06T03:50:00.522Z,5.50
2019-04-06T03:52:29.101Z,5.50
2019-04-06T03:54:57.672Z,5.50
2019-04-06T03:57:26.311Z,5.50
2019-04-06T03:59:55.020Z,5.50
2019-04-06T04:02:23.551Z,5.50
2019-04-06T04:04:52.089Z,5.50
2019-04-06T04:07:20.632Z,5.50
2019-04-06T04:09:49.137Z,5.50
2019-04-06T04:12:17.657Z,5.40
2019-04-06T04:14:46.198Z,5.40
2019-04-06T04:17:14.696Z,5.40
2019-04-06T04:19:43.247Z,5.30
2019-04-06T04:22:11.826Z,5.30
2019-04-06T04:24:40.555Z,5.30
2019-04-06T04:27:09.166Z,5.40
2019-04-06T04:29:37.928Z,5.40
2019-04-06T04:32:06.463Z,5.40
2019-04-06T04:34:34.995Z,5.50
2019-04-06T04:37:03.500Z,5.40
2019-04-06T04:39:31.966Z,5.40
2019-04-06T04:42:00.467Z,5.40
2019-04-06T04:44:29.339Z,5.40
2019-04-06T04:46:58.245Z,5.30
2019-04-06T04:49:26.865Z,5.30
2019-04-06T04:51:55.476Z,5.30
2019-04-06T04:54:24.088Z,5.30
2019-04-06T04:56:52.729Z,5.30
2019-04-06T04:59:21.306Z,5.40
2019-04-06T05:01:49.909Z,5.40
2019-04-06T05:04:18.552Z,5.40
2019-04-06T05:06:47.094Z,5.40
2019-04-06T05:09:15.679Z,5.50
2019-04-06T05:11:44.219Z,5.50
2019-04-06T05:14:48.678Z,5.50
2019-04-06T05:17:17.145Z,5.40
2019-04-06T05:19:45.795Z,5.40
2019-04-06T05:22:14.517Z,5.50
2019-04-06T05:24:48.943Z,5.50
2019-04-06T05:27:17.547Z,5.50
2019-04-06T05:29:46.109Z,5.50
2019-04-06T05:32:14.792Z,5.50
2019-04-06T05:34:43.284Z,5.50
2019-04-06T05:37:11.833Z,5.50
2019-04-06T05:39:40.412Z,5.60
2019-04-06T05:42:09.033Z,5.50
2019-04-06T05:44:37.719Z,5.50
2019-04-06T05:47:06.498Z,5.60
2019-04-06T05:49:36.439Z,5.60
2019-04-06T05:52:19.408Z,5.60
2019-04-06T05:54:48.150Z,5.60
2019-04-06T05:57:17.147Z,5.50
2019-04-06T06:00:00.399Z,5.60
2019-04-06T06:02:33.475Z,5.70
2019-04-06T06:05:02.298Z,5.70
2019-04-06T06:07:30.859Z,5.70
2019-04-06T06:09:59.568Z,5.70
2019-04-06T06:12:31.260Z,5.70
2019-04-06T06:15:02.319Z,5.80
2019-04-06T06:17:30.997Z,5.80
2019-04-06T06:19:59.583Z,5.90
2019-04-06T06:22:28.184Z,5.90
2019-04-06T06:24:56.792Z,5.90
2019-04-06T06:27:25.382Z,5.90
2019-04-06T06:29:55.111Z,5.90
2019-04-06T06:32:23.760Z,5.90
2019-04-06T06:34:52.635Z,6.00
2019-04-06T06:37:21.205Z,6.10
2019-04-06T06:39:49.830Z,6.20
2019-04-06T06:42:18.482Z,6.10
2019-04-06T06:44:47.090Z,6.30
2019-04-06T06:47:15.636Z,6.30
2019-04-06T06:49:44.260Z,6.30
2019-04-06T06:52:12.741Z,6.40
2019-04-06T06:54:41.314Z,6.40
2019-04-06T06:57:10.011Z,6.40
2019-04-06T06:59:38.527Z,6.30
2019-04-06T07:02:07.238Z,6.40
2019-04-06T07:04:35.820Z,6.40
2019-04-06T07:07:04.497Z,6.30
2019-04-06T07:09:33.116Z,6.40
2019-04-06T07:12:02.626Z,6.50
2019-04-06T07:14:31.133Z,6.60
2019-04-06T07:16:59.605Z,6.80
2019-04-06T07:19:28.451Z,6.90
2019-04-06T07:21:57.156Z,6.90
2019-04-06T07:24:26.067Z,7.00
2019-04-06T07:26:54.670Z,7.20
2019-04-06T07:29:23.490Z,7.30
2019-04-06T07:31:52.010Z,7.40
2019-04-06T07:34:20.629Z,7.50
2019-04-06T07:36:49.200Z,7.70
2019-04-06T07:39:17.752Z,7.90
2019-04-06T07:41:47.331Z,8.00
2019-04-06T07:44:15.876Z,8.10
2019-04-06T07:46:44.459Z,8.20
2019-04-06T07:49:13.002Z,8.30
2019-04-06T07:51:41.577Z,8.50
2019-04-06T07:54:10.061Z,8.60
2019-04-06T07:56:38.623Z,8.80
2019-04-06T07:59:07.160Z,8.80
2019-04-06T08:01:35.658Z,9.00
2019-04-06T08:04:04.213Z,9.10
2019-04-06T08:06:32.772Z,9.30
2019-04-06T08:09:01.248Z,9.50
2019-04-06T08:11:29.749Z,9.60
2019-04-06T08:13:58.225Z,9.80
2019-04-06T08:16:27.655Z,9.80
2019-04-06T08:18:56.133Z,9.90
2019-04-06T08:21:24.637Z,10.10
2019-04-06T08:23:53.181Z,10.20
2019-04-06T08:26:21.757Z,10.40
2019-04-06T08:28:59.666Z,10.50
2019-04-06T08:31:20.576Z,10.10
2019-04-06T08:33:49.134Z,10.40
2019-04-06T08:36:17.958Z,10.40
2019-04-06T08:38:46.454Z,10.70
2019-04-06T08:41:15.151Z,10.40
2019-04-06T08:43:43.668Z,10.50
2019-04-06T08:46:12.313Z,10.70
2019-04-06T08:48:40.789Z,10.90
2019-04-06T08:51:09.363Z,11.10
2019-04-06T08:53:37.828Z,11.50
2019-04-06T08:56:06.555Z,11.80
2019-04-06T08:58:35.075Z,11.90
2019-04-06T09:01:03.689Z,12.10
2019-04-06T09:03:32.329Z,12.00
2019-04-06T09:06:00.974Z,12.10
2019-04-06T09:08:31.196Z,11.50
2019-04-06T09:10:59.681Z,10.50
2019-04-06T09:13:28.252Z,10.70
2019-04-06T09:15:56.722Z,11.30
2019-04-06T09:18:25.228Z,11.50
2019-04-06T09:20:53.792Z,12.20
2019-04-06T09:23:22.350Z,12.60
2019-04-06T09:25:50.884Z,11.40
2019-04-06T09:28:19.502Z,12.00
2019-04-06T09:30:48.048Z,13.00
2019-04-06T09:33:16.545Z,13.80
2019-04-06T09:35:45.013Z,14.30
2019-04-06T09:38:19.699Z,15.00
2019-04-06T09:40:51.026Z,14.80
2019-04-06T09:43:19.918Z,15.20
2019-04-06T09:45:59.089Z,15.20
2019-04-06T09:48:45.309Z,15.90
2019-04-06T09:51:18.169Z,16.50
2019-04-06T09:54:07.621Z,16.90
2019-04-06T09:56:46.510Z,17.70
2019-04-06T09:59:36.044Z,18.20
2019-04-06T10:02:05.413Z,18.40
2019-04-06T10:04:51.243Z,18.70
2019-04-06T10:07:34.468Z,17.70
2019-04-06T10:10:05.199Z,17.90
2019-04-06T10:12:51.388Z,18.80
2019-04-06T10:15:27.448Z,19.70
2019-04-06T10:17:57.596Z,19.70
2019-04-06T10:20:39.763Z,17.80
2019-04-06T10:23:12.913Z,16.80
2019-04-06T10:25:59.395Z,18.20
2019-04-06T10:28:35.475Z,19.60
2019-04-06T10:31:14.277Z,20.60
2019-04-06T10:33:50.361Z,19.90
2019-04-06T10:36:23.418Z,18.00
2019-04-06T10:38:53.588Z,18.50
2019-04-06T10:41:38.756Z,19.40
2019-04-06T10:44:17.605Z,19.80
2019-04-06T10:46:47.784Z,20.20
2019-04-06T10:49:34.395Z,21.00
2019-04-06T10:52:13.431Z,18.70
2019-04-06T10:54:59.504Z,18.90
2019-04-06T10:57:29.918Z,19.70
2019-04-06T11:00:03.524Z,19.60
2019-04-06T11:02:48.500Z,19.30
2019-04-06T11:05:18.632Z,18.40
2019-04-06T11:07:51.252Z,19.90
2019-04-06T11:10:21.532Z,21.10
2019-04-06T11:13:00.753Z,20.40
2019-04-06T11:15:46.951Z,21.60
2019-04-06T11:18:32.955Z,20.50
2019-04-06T11:21:03.124Z,19.40
2019-04-06T11:23:35.950Z,19.60
2019-04-06T11:26:14.913Z,19.90
2019-04-06T11:29:00.928Z,19.50
2019-04-06T11:31:31.068Z,18.70
2019-04-06T11:34:10.240Z,18.00
2019-04-06T11:36:56.732Z,17.70
2019-04-06T11:39:36.019Z,18.60
2019-04-06T11:42:06.355Z,18.20
2019-04-06T11:44:36.482Z,18.70
2019-04-06T11:47:06.690Z,19.60
2019-04-06T11:49:42.601Z,20.00
2019-04-06T11:52:12.801Z,19.00
2019-04-06T11:54:59.108Z,18.40
2019-04-06T11:57:29.501Z,18.60
2019-04-06T12:00:25.522Z,19.40
2019-04-06T12:02:49.713Z,17.70
2019-04-06T12:05:25.672Z,17.40
2019-04-06T12:08:04.559Z,18.40
2019-04-06T12:10:50.971Z,17.00
2019-04-06T12:13:27.176Z,17.20
2019-04-06T12:16:00.109Z,17.80
2019-04-06T12:18:46.193Z,18.00
2019-04-06T12:21:22.098Z,18.90
2019-04-06T12:24:00.858Z,20.20
2019-04-06T12:26:33.521Z,18.60
2019-04-06T12:29:21.317Z,19.20
2019-04-06T12:31:57.749Z,18.10
2019-04-06T12:34:30.945Z,18.00
2019-04-06T12:37:04.031Z,17.10
2019-04-06T12:39:52.710Z,18.00
2019-04-06T12:42:21.181Z,18.70
2019-04-06T12:44:54.068Z,19.10
2019-04-06T12:47:24.322Z,19.30
2019-04-06T12:50:03.225Z,19.20
2019-04-06T12:52:33.531Z,18.50
2019-04-06T12:55:03.806Z,17.80
2019-04-06T12:57:34.030Z,18.00
2019-04-06T13:00:15.939Z,16.20
2019-04-06T13:03:02.329Z,17.30
2019-04-06T13:05:38.219Z,17.70
2019-04-06T13:08:11.239Z,17.00
2019-04-06T13:10:46.865Z,17.00
2019-04-06T13:13:31.932Z,17.40
2019-04-06T13:16:07.790Z,16.80
2019-04-06T13:18:55.873Z,16.00
2019-04-06T13:21:43.788Z,15.20
2019-04-06T13:24:16.830Z,15.70
2019-04-06T13:26:47.254Z,16.40
2019-04-06T13:29:29.212Z,16.20
2019-04-06T13:32:07.952Z,15.30
2019-04-06T13:34:38.084Z,15.20
2019-04-06T13:37:08.577Z,15.20
2019-04-06T13:39:38.760Z,15.40
2019-04-06T13:42:26.956Z,15.50
2019-04-06T13:45:12.797Z,15.30
2019-04-06T13:47:43.368Z,14.90
2019-04-06T13:50:13.660Z,15.30
2019-04-06T13:52:43.798Z,15.70
2019-04-06T13:55:19.919Z,15.70
2019-04-06T13:57:50.745Z,15.80
2019-04-06T14:00:30.120Z,15.90
2019-04-06T14:03:18.208Z,15.60
2019-04-06T14:05:51.124Z,15.70
2019-04-06T14:08:37.427Z,15.90
2019-04-06T14:11:24.141Z,15.40
2019-04-06T14:13:54.362Z,15.10
2019-04-06T14:16:40.226Z,15.50
2019-04-06T14:19:18.965Z,15.60
2019-04-06T14:21:49.080Z,15.70
2019-04-06T14:24:19.509Z,15.80
2019-04-06T14:27:07.538Z,16.00
2019-04-06T14:29:43.584Z,16.00
2019-04-06T14:32:13.696Z,15.60
2019-04-06T14:34:49.749Z,15.90
2019-04-06T14:37:32.052Z,16.30
2019-04-06T14:40:13.914Z,16.30
2019-04-06T14:42:46.812Z,16.00
2019-04-06T14:45:22.621Z,15.30
2019-04-06T14:47:55.807Z,15.10
2019-04-06T14:50:26.293Z,15.20
2019-04-06T14:53:14.204Z,15.40
2019-04-06T14:55:47.010Z,15.30
2019-04-06T14:58:22.570Z,15.30
2019-04-06T15:00:55.257Z,15.20
2019-04-06T15:03:25.875Z,15.20
2019-04-06T15:05:59.325Z,15.00
2019-04-06T15:08:29.567Z,14.70
2019-04-06T15:11:08.475Z,14.60
2019-04-06T15:13:38.686Z,14.60
2019-04-06T15:16:20.680Z,15.00
2019-04-06T15:18:51.129Z,15.30
2019-04-06T15:21:24.400Z,15.60
2019-04-06T15:24:06.292Z,15.60
2019-04-06T15:26:51.492Z,15.70
2019-04-06T15:29:39.812Z,15.70
2019-04-06T15:32:15.842Z,15.60
2019-04-06T15:34:51.682Z,15.70
2019-04-06T15:37:24.792Z,15.60
2019-04-06T15:40:09.726Z,15.40
2019-04-06T15:42:45.945Z,15.10
2019-04-06T15:45:33.795Z,15.10
2019-04-06T15:48:09.898Z,15.10
2019-04-06T15:50:48.503Z,15.00
2019-04-06T15:53:18.689Z,14.90
2019-04-06T15:55:52.069Z,14.80
2019-04-06T15:58:30.963Z,14.80
2019-04-06T16:01:03.854Z,14.80
2019-04-06T16:03:34.073Z,14.90
2019-04-06T16:06:05.271Z,14.90
2019-04-06T16:08:41.417Z,15.00
2019-04-06T16:11:26.664Z,14.90
2019-04-06T16:14:14.474Z,14.70
2019-04-06T16:16:50.716Z,14.70
2019-04-06T16:19:20.978Z,14.60
2019-04-06T16:21:54.583Z,14.60
2019-04-06T16:24:27.576Z,14.60
2019-04-06T16:27:03.851Z,14.60
2019-04-06T16:29:34.120Z,14.30
2019-04-06T16:32:13.515Z,14.20
2019-04-06T16:34:52.864Z,14.10
2019-04-06T16:37:23.102Z,14.10
2019-04-06T16:39:53.440Z,14.10
2019-04-06T16:42:26.251Z,14.10
2019-04-06T16:45:02.501Z,14.00
2019-04-06T16:47:50.399Z,13.90
2019-04-06T16:50:24.349Z,13.90
2019-04-06T16:53:20.912Z,13.90
2019-04-06T16:56:03.291Z,13.90
2019-04-06T16:58:45.066Z,13.90
2019-04-06T17:01:15.281Z,13.80
2019-04-06T17:04:01.648Z,13.70
2019-04-06T17:06:48.846Z,13.60
2019-04-06T17:09:35.567Z,13.60
2019-04-06T17:12:23.781Z,13.50
2019-04-06T17:15:10.580Z,13.50
2019-04-06T17:17:46.512Z,13.40
2019-04-06T17:20:32.188Z,13.30
2019-04-06T17:23:05.158Z,13.30
2019-04-06T17:25:35.369Z,13.20
2019-04-06T17:28:05.576Z,13.20
2019-04-06T17:30:50.850Z,13.10
2019-04-06T17:33:36.973Z,13.10
2019-04-06T17:36:21.709Z,13.00
2019-04-06T17:39:00.560Z,12.90
2019-04-06T17:41:46.588Z,12.80
2019-04-06T17:44:22.511Z,12.70
2019-04-06T17:46:52.710Z,12.70
2019-04-06T17:49:24.170Z,12.70
2019-04-06T17:51:55.395Z,12.50
2019-04-06T17:54:41.584Z,12.50
2019-04-06T17:57:27.867Z,12.40
2019-04-06T17:59:58.060Z,12.30
2019-04-06T18:02:31.219Z,12.20
2019-04-06T18:05:06.882Z,12.20
2019-04-06T18:07:52.775Z,12.10
2019-04-06T18:10:28.991Z,12.00
2019-04-06T18:13:02.477Z,11.90
2019-04-06T18:15:31.516Z,11.80
2019-04-06T18:18:00.067Z,11.70
2019-04-06T18:20:28.795Z,11.60
2019-04-06T18:22:57.280Z,11.60
2019-04-06T18:25:25.752Z,11.50
2019-04-06T18:27:54.220Z,11.40
2019-04-06T18:30:26.413Z,11.30
2019-04-06T18:33:02.522Z,11.30
2019-04-06T18:35:29.939Z,11.20
2019-04-06T18:38:00.442Z,11.10
2019-04-06T18:40:29.100Z,11.00
2019-04-06T18:42:57.645Z,11.00
2019-04-06T18:45:28.096Z,10.90
2019-04-06T18:47:56.565Z,10.90
2019-04-06T18:50:34.229Z,10.80
2019-04-06T18:52:55.545Z,10.80
2019-04-06T18:55:24.432Z,10.70
2019-04-06T18:57:53.027Z,10.70
2019-04-06T19:00:22.145Z,10.60
2019-04-06T19:02:50.770Z,10.60
2019-04-06T19:05:19.413Z,10.60
2019-04-06T19:07:48.138Z,10.50
2019-04-06T19:10:16.768Z,10.40
2019-04-06T19:12:45.317Z,10.30
2019-04-06T19:15:14.057Z,10.20
2019-04-06T19:17:42.917Z,10.20
2019-04-06T19:20:11.650Z,10.10
2019-04-06T19:22:40.133Z,10.10
2019-04-06T19:25:09.447Z,10.00
2019-04-06T19:27:37.938Z,10.00
2019-04-06T19:30:10.087Z,10.00
2019-04-06T19:32:38.970Z,10.00
2019-04-06T19:35:10.734Z,10.00
2019-04-06T19:37:39.529Z,9.90
2019-04-06T19:40:08.504Z,9.90
2019-04-06T19:42:37.369Z,9.90
2019-04-06T19:45:07.279Z,9.80
2019-04-06T19:47:35.883Z,9.70
2019-04-06T19:50:06.434Z,9.70
2019-04-06T19:52:35.050Z,9.60
2019-04-06T19:55:04.696Z,9.50
2019-04-06T19:57:33.340Z,9.50
2019-04-06T20:00:02.302Z,9.40
2019-04-06T20:02:31.191Z,9.40
2019-04-06T20:04:59.721Z,9.40
2019-04-06T20:07:28.684Z,9.30
2019-04-06T20:09:57.212Z,9.30
2019-04-06T20:12:25.710Z,9.30
2019-04-06T20:14:54.269Z,9.40
2019-04-06T20:17:22.840Z,9.40
2019-04-06T20:19:51.806Z,9.40
2019-04-06T20:22:20.627Z,9.40
2019-04-06T20:24:49.136Z,9.50
2019-04-06T20:27:17.641Z,9.50
2019-04-06T20:29:46.113Z,9.50
2019-04-06T20:32:14.600Z,9.50
2019-04-06T20:34:43.539Z,9.50
2019-04-06T20:37:12.347Z,9.50
2019-04-06T20:39:41.012Z,9.50
2019-04-06T20:42:09.919Z,9.50
2019-04-06T20:44:38.395Z,9.50
2019-04-06T20:47:06.964Z,9.50
2019-04-06T20:49:35.435Z,9.50
2019-04-06T20:52:04.484Z,9.50
2019-04-06T20:54:33.042Z,9.50
2019-04-06T20:57:01.711Z,9.50
2019-04-06T20:59:30.485Z,9.60
2019-04-06T21:01:59.050Z,9.60
2019-04-06T21:04:28.076Z,9.60
2019-04-06T21:06:56.671Z,9.60
2019-04-06T21:09:25.793Z,9.60
2019-04-06T21:11:54.667Z,9.60
2019-04-06T21:14:23.292Z,9.60
2019-04-06T21:16:51.817Z,9.60
2019-04-06T21:19:20.350Z,9.50
2019-04-06T21:21:50.378Z,9.40
2019-04-06T21:24:19.000Z,9.40
2019-04-06T21:26:47.924Z,9.40
2019-04-06T21:29:16.828Z,9.50
2019-04-06T21:31:45.389Z,9.50
2019-04-06T21:34:16.530Z,9.40
2019-04-06T21:36:44.157Z,9.30
2019-04-06T21:39:13.283Z,9.30
2019-04-06T21:41:41.801Z,9.30
2019-04-06T21:44:10.376Z,9.30
2019-04-06T21:46:39.296Z,9.40
2019-04-06T21:49:07.813Z,9.50
2019-04-06T21:51:36.280Z,9.50
2019-04-06T21:54:04.859Z,9.50
2019-04-06T21:56:33.324Z,9.50
2019-04-06T21:59:01.888Z,9.50
2019-04-06T22:01:31.840Z,9.50
2019-04-06T22:04:00.982Z,9.50
2019-04-06T22:06:29.488Z,9.50
2019-04-06T22:08:58.029Z,9.50
2019-04-06T22:11:26.646Z,9.40
2019-04-06T22:13:55.150Z,9.40
2019-04-06T22:16:23.689Z,9.40
2019-04-06T22:18:52.255Z,9.40
2019-04-06T22:21:20.802Z,9.30
2019-04-06T22:23:49.863Z,9.40
2019-04-06T22:26:18.444Z,9.40
2019-04-06T22:28:47.009Z,9.30
2019-04-06T22:31:15.482Z,9.30
2019-04-06T22:33:44.641Z,9.20
2019-04-06T22:36:13.281Z,9.10
2019-04-06T22:38:41.788Z,9.10
2019-04-06T22:41:11.804Z,9.00
2019-04-06T22:43:40.324Z,8.90
2019-04-06T22:46:09.269Z,8.80
2019-04-06T22:48:37.873Z,8.80
2019-04-06T22:51:06.845Z,8.70
2019-04-06T22:53:35.989Z,8.70
2019-04-06T22:56:05.511Z,8.60
2019-04-06T22:58:34.434Z,8.60
2019-04-06T23:01:10.715Z,8.60
2019-04-06T23:03:57.163Z,8.50
2019-04-06T23:06:30.156Z,8.50
2019-04-06T23:08:58.749Z,8.50
2019-04-06T23:11:27.564Z,8.40
2019-04-06T23:13:56.328Z,8.40
2019-04-06T23:16:24.801Z,8.30
2019-04-06T23:18:53.743Z,8.30
2019-04-06T23:21:22.514Z,8.30
2019-04-06T23:23:51.060Z,8.30
2019-04-06T23:26:20.105Z,8.30
2019-04-06T23:28:49.021Z,8.20
2019-04-06T23:31:17.546Z,8.20
2019-04-06T23:33:46.099Z,8.30
2019-04-06T23:36:14.664Z,8.20
2019-04-06T23:38:43.140Z,8.20
2019-04-06T23:41:11.690Z,8.10
2019-04-06T23:43:40.440Z,8.00
2019-04-06T23:46:08.949Z,8.00
2019-04-06T23:48:38.095Z,8.10
2019-04-06T23:51:06.660Z,8.10
2019-04-06T23:53:35.207Z,8.20
2019-04-06T23:56:04.327Z,8.20
2019-04-06T23:58:32.908Z,8.20
